Time;durP1;ratioP1;P1;durP2;ratioP2;P2;SDS_P1;SDS_P2;PMS_P1;PMS_P2;Temp;Humidity;BMP_temperature;BMP_pressure;BME280_temperature;BME280_humidity;BME280_pressure;Samples;Min_cycle;Max_cycle;Signal;HPM_P1;HPM_P2
2023/06/30 00:01:28;;;;;;;3.33;3.03;;;;;;;;;;5111183;28;20315;-78
2023/06/30 00:03:55;;;;;;;3.27;2.70;;;;;;;;;;5097153;28;20204;-78
2023/06/30 00:06:22;;;;;;;3.03;2.20;;;;;;;;;;5102850;28;20248;-78
2023/06/30 00:08:49;;;;;;;3.73;2.77;;;;;;;;;;5092075;28;20204;-77
2023/06/30 00:11:16;;;;;;;3.10;2.80;;;;;;;;;;5102143;28;20239;-78
2023/06/30 00:13:45;;;;;;;2.70;2.50;;;;;;;;;;5103867;28;20192;-78
2023/06/30 00:16:12;;;;;;;3.20;3.00;;;;;;;;;;5100165;28;20635;-78
2023/06/30 00:18:38;;;;;;;3.27;2.70;;;;;;;;;;5107677;28;20195;-78
2023/06/30 00:21:05;;;;;;;3.17;2.97;;;;;;;;;;5099980;28;20223;-78
2023/06/30 00:23:32;;;;;;;4.07;3.00;;;;;;;;;;5110108;28;20208;-78
2023/06/30 00:25:58;;;;;;;2.83;2.63;;;;;;;;;;5111149;28;20206;-78
2023/06/30 00:28:25;;;;;;;2.67;2.47;;;;;;;;;;5112570;28;20619;-78
2023/06/30 00:30:54;;;;;;;3.07;2.87;;;;;;;;;;5094205;28;20249;-78
2023/06/30 00:33:20;;;;;;;3.87;2.60;;;;;;;;;;5109529;28;20586;-78
2023/06/30 00:35:47;;;;;;;3.17;2.93;;;;;;;;;;5105348;28;20205;-78
2023/06/30 00:38:14;;;;;;;3.17;2.87;;;;;;;;;;5108931;28;20207;-78
2023/06/30 00:40:41;;;;;;;4.17;3.00;;;;;;;;;;5114278;28;20235;-78
2023/06/30 00:43:07;;;;;;;3.00;2.70;;;;;;;;;;5114096;28;20207;-78
2023/06/30 00:45:34;;;;;;;3.53;2.50;;;;;;;;;;5114437;28;20195;-78
2023/06/30 00:48:03;;;;;;;2.80;2.60;;;;;;;;;;5113998;28;20291;-78
2023/06/30 00:50:29;;;;;;;5.10;2.83;;;;;;;;;;5114103;28;20206;-78
2023/06/30 00:52:57;;;;;;;4.60;2.73;;;;;;;;;;5100446;28;20204;-78
2023/06/30 00:55:25;;;;;;;3.10;2.90;;;;;;;;;;5104785;28;20253;-78
2023/06/30 00:57:52;;;;;;;3.80;2.90;;;;;;;;;;5093410;28;20200;-78
2023/06/30 01:00:20;;;;;;;3.00;2.80;;;;;;;;;;5093577;28;20622;-78
2023/06/30 01:02:51;;;;;;;2.90;2.70;;;;;;;;;;5111150;28;20215;-78
2023/06/30 01:05:26;;;;;;;3.00;2.80;;;;;;;;;;5102803;28;20732;-78
2023/06/30 01:07:57;;;;;;;3.13;2.30;;;;;;;;;;5106971;28;20257;-77
2023/06/30 01:10:25;;;;;;;2.80;2.60;;;;;;;;;;5106782;28;20215;-78
2023/06/30 01:12:52;;;;;;;3.40;3.10;;;;;;;;;;5093507;28;20204;-78
2023/06/30 01:15:19;;;;;;;3.40;3.10;;;;;;;;;;5106832;28;20245;-78
2023/06/30 01:17:49;;;;;;;3.37;2.80;;;;;;;;;;5093189;28;20203;-78
2023/06/30 01:20:19;;;;;;;2.73;2.53;;;;;;;;;;5106487;28;20256;-78
2023/06/30 01:22:51;;;;;;;3.13;2.90;;;;;;;;;;5101725;28;20208;-78
2023/06/30 01:25:20;;;;;;;2.93;2.73;;;;;;;;;;5113735;28;20220;-78
2023/06/30 01:27:47;;;;;;;3.67;2.77;;;;;;;;;;5102980;28;20204;-78
2023/06/30 01:30:14;;;;;;;3.57;3.27;;;;;;;;;;5110324;28;20206;-78
2023/06/30 01:32:43;;;;;;;3.03;2.77;;;;;;;;;;5113237;28;20231;-78
2023/06/30 01:35:09;;;;;;;2.73;2.53;;;;;;;;;;5095595;28;20200;-78
2023/06/30 01:37:37;;;;;;;7.83;3.40;;;;;;;;;;5104277;28;20207;-78
2023/06/30 01:40:06;;;;;;;3.20;3.00;;;;;;;;;;5099239;28;20231;-78
2023/06/30 01:42:33;;;;;;;4.80;3.00;;;;;;;;;;5101041;28;20676;-78
2023/06/30 01:44:59;;;;;;;3.00;2.80;;;;;;;;;;5098191;28;20199;-77
2023/06/30 01:47:26;;;;;;;2.90;2.60;;;;;;;;;;5101077;28;20627;-78
2023/06/30 01:49:53;;;;;;;3.27;2.97;;;;;;;;;;5098440;28;20195;-78
2023/06/30 01:52:20;;;;;;;4.53;4.13;;;;;;;;;;5100099;28;20635;-78
2023/06/30 01:54:48;;;;;;;3.17;2.97;;;;;;;;;;5112072;28;20196;-77
2023/06/30 01:57:15;;;;;;;3.80;3.10;;;;;;;;;;5099896;28;20200;-78
2023/06/30 01:59:41;;;;;;;7.80;3.43;;;;;;;;;;5112249;28;20734;-78
2023/06/30 02:02:08;;;;;;;3.87;3.43;;;;;;;;;;5098866;28;20227;-76
2023/06/30 02:04:35;;;;;;;3.17;2.97;;;;;;;;;;5092457;28;20196;-76
2023/06/30 02:07:01;;;;;;;4.47;3.07;;;;;;;;;;5092453;28;20208;-76
2023/06/30 02:09:28;;;;;;;4.20;3.27;;;;;;;;;;5092611;28;20207;-78
2023/06/30 02:11:56;;;;;;;4.37;3.33;;;;;;;;;;5105517;28;20206;-78
2023/06/30 02:14:23;;;;;;;3.10;2.90;;;;;;;;;;5099945;28;20198;-78
2023/06/30 02:16:50;;;;;;;3.43;3.17;;;;;;;;;;5097594;28;20203;-76
2023/06/30 02:19:17;;;;;;;3.17;2.93;;;;;;;;;;5100078;28;20203;-76
2023/06/30 02:21:44;;;;;;;3.83;3.53;;;;;;;;;;5112253;28;20287;-76
2023/06/30 02:24:12;;;;;;;3.00;2.80;;;;;;;;;;5105402;28;20200;-76
2023/06/30 02:26:39;;;;;;;4.10;3.70;;;;;;;;;;5091988;28;20203;-78
2023/06/30 02:29:07;;;;;;;4.93;3.10;;;;;;;;;;5091806;28;20204;-78
2023/06/30 02:31:34;;;;;;;3.40;3.20;;;;;;;;;;5106797;28;20206;-78
2023/06/30 02:34:01;;;;;;;3.73;3.43;;;;;;;;;;5111894;28;20207;-77
2023/06/30 02:36:28;;;;;;;3.70;3.40;;;;;;;;;;5096941;28;20200;-78
2023/06/30 02:38:54;;;;;;;3.37;3.10;;;;;;;;;;5091346;28;20215;-76
2023/06/30 02:41:21;;;;;;;3.03;2.83;;;;;;;;;;5093576;28;20239;-76
2023/06/30 02:43:48;;;;;;;4.00;2.80;;;;;;;;;;5112068;28;20206;-76
2023/06/30 02:46:16;;;;;;;3.50;2.87;;;;;;;;;;5098219;28;20257;-76
2023/06/30 02:48:43;;;;;;;3.13;2.93;;;;;;;;;;5101870;28;20223;-78
2023/06/30 02:51:09;;;;;;;3.47;3.17;;;;;;;;;;5105058;28;20203;-76
2023/06/30 02:53:36;;;;;;;4.87;3.50;;;;;;;;;;5109946;27;20207;-76
2023/06/30 02:56:03;;;;;;;3.33;3.10;;;;;;;;;;5120877;27;20210;-76
2023/06/30 02:58:30;;;;;;;3.20;3.00;;;;;;;;;;5111756;28;20199;-76
2023/06/30 03:00:57;;;;;;;3.33;3.03;;;;;;;;;;5111531;28;20205;-76
2023/06/30 03:03:25;;;;;;;3.60;3.40;;;;;;;;;;5111758;28;20210;-76
2023/06/30 03:05:52;;;;;;;5.57;3.60;;;;;;;;;;5102958;28;20212;-76
2023/06/30 03:08:19;;;;;;;3.63;3.37;;;;;;;;;;5104842;28;20210;-76
2023/06/30 03:10:48;;;;;;;3.57;3.27;;;;;;;;;;5099814;28;20211;-76
2023/06/30 03:13:15;;;;;;;4.87;3.47;;;;;;;;;;5097877;28;20608;-76
2023/06/30 03:15:42;;;;;;;4.17;2.93;;;;;;;;;;5101857;28;20663;-76
2023/06/30 03:18:09;;;;;;;3.67;3.37;;;;;;;;;;5104656;28;21947;-76
2023/06/30 03:20:37;;;;;;;5.93;3.60;;;;;;;;;;5100628;28;20587;-76
2023/06/30 03:23:03;;;;;;;4.90;3.03;;;;;;;;;;5111054;28;20230;-76
2023/06/30 03:25:30;;;;;;;4.77;4.07;;;;;;;;;;5111253;28;20200;-76
2023/06/30 03:27:57;;;;;;;3.77;3.57;;;;;;;;;;5111185;28;20216;-77
2023/06/30 03:30:24;;;;;;;3.97;3.67;;;;;;;;;;5111135;28;20203;-76
2023/06/30 03:32:50;;;;;;;3.73;3.23;;;;;;;;;;5108179;28;20677;-77
2023/06/30 03:35:17;;;;;;;3.70;3.50;;;;;;;;;;5110601;28;20590;-78
2023/06/30 03:37:45;;;;;;;4.73;3.80;;;;;;;;;;5111342;27;20203;-78
2023/06/30 03:40:13;;;;;;;3.63;3.43;;;;;;;;;;5098998;28;20289;-78
2023/06/30 03:42:40;;;;;;;3.73;3.43;;;;;;;;;;5095637;28;20607;-78
2023/06/30 03:45:08;;;;;;;4.30;3.50;;;;;;;;;;5103990;28;20285;-79
2023/06/30 03:47:35;;;;;;;4.47;4.07;;;;;;;;;;5104522;28;20228;-80
2023/06/30 03:50:02;;;;;;;3.73;3.50;;;;;;;;;;5090501;28;20201;-80
2023/06/30 03:52:29;;;;;;;3.93;3.63;;;;;;;;;;5110226;28;20196;-80
2023/06/30 03:54:59;;;;;;;4.10;3.80;;;;;;;;;;5098301;28;20204;-80
2023/06/30 03:57:26;;;;;;;3.97;3.33;;;;;;;;;;5098025;28;20202;-80
2023/06/30 03:59:53;;;;;;;3.70;3.50;;;;;;;;;;5110788;28;20256;-80
2023/06/30 04:02:19;;;;;;;3.80;3.50;;;;;;;;;;5101371;28;20716;-80
2023/06/30 04:04:46;;;;;;;3.80;3.50;;;;;;;;;;5114009;28;20678;-80
2023/06/30 04:07:13;;;;;;;4.17;3.87;;;;;;;;;;5095105;28;20566;-80
2023/06/30 04:09:40;;;;;;;3.77;3.47;;;;;;;;;;5103973;27;20210;-80
2023/06/30 04:12:09;;;;;;;4.27;3.87;;;;;;;;;;5104957;28;20208;-79
2023/06/30 04:14:36;;;;;;;4.30;3.90;;;;;;;;;;5098874;28;20665;-80
2023/06/30 04:17:03;;;;;;;4.40;4.10;;;;;;;;;;5114884;28;20207;-77
2023/06/30 04:19:30;;;;;;;4.67;4.27;;;;;;;;;;5114527;28;20205;-77
2023/06/30 04:21:56;;;;;;;4.40;4.10;;;;;;;;;;5103166;28;20604;-77
2023/06/30 04:24:23;;;;;;;4.77;4.17;;;;;;;;;;5094538;28;20193;-77
2023/06/30 04:26:50;;;;;;;4.40;4.10;;;;;;;;;;5109887;28;20203;-77
2023/06/30 04:29:18;;;;;;;4.30;3.90;;;;;;;;;;5114554;28;20196;-77
2023/06/30 04:31:45;;;;;;;6.73;3.63;;;;;;;;;;5100889;28;20223;-77
2023/06/30 04:34:11;;;;;;;3.93;3.63;;;;;;;;;;5114548;28;20203;-77
2023/06/30 04:36:39;;;;;;;4.40;4.10;;;;;;;;;;5111636;28;20257;-77
2023/06/30 04:39:06;;;;;;;4.40;4.10;;;;;;;;;;5104038;28;20200;-77
2023/06/30 04:41:32;;;;;;;6.10;3.97;;;;;;;;;;5100818;28;20299;-77
2023/06/30 04:44:00;;;;;;;4.90;3.93;;;;;;;;;;5104084;28;20212;-77
2023/06/30 04:46:28;;;;;;;4.27;3.97;;;;;;;;;;5094328;28;20254;-77
2023/06/30 04:48:55;;;;;;;4.63;4.30;;;;;;;;;;5105240;28;20200;-77
2023/06/30 04:51:22;;;;;;;4.37;4.00;;;;;;;;;;5099644;28;20287;-77
2023/06/30 04:53:49;;;;;;;5.40;5.00;;;;;;;;;;5112404;28;20200;-77
2023/06/30 04:56:16;;;;;;;14.97;12.23;;;;;;;;;;5096206;28;20196;-77
2023/06/30 04:58:42;;;;;;;10.67;9.77;;;;;;;;;;5093778;28;20200;-77
2023/06/30 05:01:09;;;;;;;5.93;5.53;;;;;;;;;;5093592;28;20215;-77
2023/06/30 05:03:37;;;;;;;5.10;4.73;;;;;;;;;;5093301;28;20231;-77
2023/06/30 05:06:05;;;;;;;6.33;5.43;;;;;;;;;;5107243;28;20263;-77
2023/06/30 05:08:31;;;;;;;5.07;4.40;;;;;;;;;;5106120;28;20202;-77
2023/06/30 05:10:58;;;;;;;5.80;4.13;;;;;;;;;;5093961;28;20751;-77
2023/06/30 05:13:26;;;;;;;4.33;4.03;;;;;;;;;;5106188;28;20277;-77
2023/06/30 05:15:53;;;;;;;4.17;3.90;;;;;;;;;;5093823;28;20227;-77
2023/06/30 05:18:20;;;;;;;5.07;3.80;;;;;;;;;;5106599;28;20261;-77
2023/06/30 05:20:48;;;;;;;3.87;3.57;;;;;;;;;;5107780;28;20608;-77
2023/06/30 05:23:15;;;;;;;4.50;3.97;;;;;;;;;;5106221;28;20231;-78
2023/06/30 05:25:42;;;;;;;4.27;3.83;;;;;;;;;;5093676;28;20204;-77
2023/06/30 05:28:09;;;;;;;5.33;4.20;;;;;;;;;;5092998;28;20205;-77
2023/06/30 05:30:35;;;;;;;7.20;6.57;;;;;;;;;;5099466;28;20201;-77
2023/06/30 05:33:02;;;;;;;4.50;4.10;;;;;;;;;;5099605;28;20205;-77
2023/06/30 05:35:29;;;;;;;3.93;3.63;;;;;;;;;;5099581;28;20207;-77
2023/06/30 05:37:57;;;;;;;4.23;3.73;;;;;;;;;;5099247;28;20587;-78
2023/06/30 05:40:24;;;;;;;4.33;4.03;;;;;;;;;;5093395;28;20232;-77
2023/06/30 05:42:50;;;;;;;4.10;3.80;;;;;;;;;;5106687;28;20223;-77
2023/06/30 05:45:17;;;;;;;3.83;3.17;;;;;;;;;;5105701;28;20200;-77
2023/06/30 05:47:44;;;;;;;3.60;3.30;;;;;;;;;;5093872;28;20208;-77
2023/06/30 05:50:11;;;;;;;3.27;3.07;;;;;;;;;;5106019;28;20197;-77
2023/06/30 05:52:38;;;;;;;4.87;3.37;;;;;;;;;;5107121;28;20211;-77
2023/06/30 05:55:07;;;;;;;3.57;3.27;;;;;;;;;;5113031;28;20200;-77
2023/06/30 05:57:34;;;;;;;3.03;2.73;;;;;;;;;;5099306;28;20197;-77
2023/06/30 06:00:00;;;;;;;4.13;3.20;;;;;;;;;;5104809;28;20208;-77
2023/06/30 06:02:27;;;;;;;2.70;2.50;;;;;;;;;;5107699;28;20223;-77
2023/06/30 06:04:54;;;;;;;2.90;2.57;;;;;;;;;;5112556;28;20195;-77
2023/06/30 06:07:21;;;;;;;3.23;2.97;;;;;;;;;;5096616;28;20205;-77
2023/06/30 06:09:47;;;;;;;3.80;2.70;;;;;;;;;;5101220;28;20203;-77
2023/06/30 06:12:16;;;;;;;2.97;2.70;;;;;;;;;;5096392;28;20275;-77
2023/06/30 06:14:43;;;;;;;5.10;3.10;;;;;;;;;;5102250;28;20218;-77
2023/06/30 06:17:09;;;;;;;2.70;2.50;;;;;;;;;;5109053;28;20239;-77
2023/06/30 06:19:36;;;;;;;2.37;2.27;;;;;;;;;;5102145;28;20191;-77
2023/06/30 06:22:03;;;;;;;2.80;2.60;;;;;;;;;;5098865;28;20197;-77
2023/06/30 06:24:30;;;;;;;2.83;2.63;;;;;;;;;;5101143;28;20196;-77
2023/06/30 06:26:56;;;;;;;3.10;2.67;;;;;;;;;;5095485;28;20196;-77
2023/06/30 06:29:25;;;;;;;2.47;2.27;;;;;;;;;;5102030;28;20200;-77
2023/06/30 06:31:53;;;;;;;4.70;2.47;;;;;;;;;;5109236;28;20201;-77
2023/06/30 06:34:20;;;;;;;3.10;2.80;;;;;;;;;;5101791;28;20216;-77
2023/06/30 06:36:46;;;;;;;2.77;2.57;;;;;;;;;;5091571;28;20208;-77
2023/06/30 06:39:13;;;;;;;3.77;3.00;;;;;;;;;;5103510;28;20204;-77
2023/06/30 06:41:40;;;;;;;2.07;1.97;;;;;;;;;;5098461;28;20324;-77
2023/06/30 06:44:07;;;;;;;3.97;2.87;;;;;;;;;;5112365;28;20598;-77
2023/06/30 06:46:35;;;;;;;2.40;2.30;;;;;;;;;;5092925;28;20203;-77
2023/06/30 06:49:02;;;;;;;4.03;2.07;;;;;;;;;;5103730;28;20199;-76
2023/06/30 06:51:29;;;;;;;6.33;2.20;;;;;;;;;;5098550;28;20214;-77
2023/06/30 06:53:55;;;;;;;3.13;2.60;;;;;;;;;;5111628;28;20195;-77
2023/06/30 06:56:22;;;;;;;2.20;2.10;;;;;;;;;;5097821;28;20206;-77
2023/06/30 06:58:49;;;;;;;2.10;1.90;;;;;;;;;;5098868;28;20206;-78
2023/06/30 07:01:16;;;;;;;2.53;2.33;;;;;;;;;;5111743;28;20218;-77
2023/06/30 07:03:44;;;;;;;2.60;2.40;;;;;;;;;;5098636;28;20228;-77
2023/06/30 07:06:11;;;;;;;3.80;2.60;;;;;;;;;;5110860;28;20196;-77
2023/06/30 07:08:39;;;;;;;4.03;2.67;;;;;;;;;;5098966;28;20229;-77
2023/06/30 07:11:08;;;;;;;2.40;2.20;;;;;;;;;;5104619;28;20204;-77
2023/06/30 07:13:34;;;;;;;5.73;3.63;;;;;;;;;;5091306;28;20200;-77
2023/06/30 07:16:01;;;;;;;3.97;2.50;;;;;;;;;;5098314;28;20562;-77
2023/06/30 07:18:29;;;;;;;5.63;2.60;;;;;;;;;;5110869;28;20689;-77
2023/06/30 07:20:57;;;;;;;2.33;2.13;;;;;;;;;;5098120;28;20223;-77
2023/06/30 07:23:25;;;;;;;3.23;2.93;;;;;;;;;;5110535;28;20219;-77
2023/06/30 07:25:52;;;;;;;2.40;2.20;;;;;;;;;;5098780;28;20217;-77
2023/06/30 07:28:19;;;;;;;2.73;2.50;;;;;;;;;;5110003;28;20199;-77
2023/06/30 07:30:45;;;;;;;2.30;2.10;;;;;;;;;;5098844;28;20245;-77
2023/06/30 07:33:12;;;;;;;2.47;2.17;;;;;;;;;;5097379;28;20212;-77
2023/06/30 07:35:39;;;;;;;3.43;2.67;;;;;;;;;;5103090;28;20235;-77
2023/06/30 07:38:07;;;;;;;3.00;2.40;;;;;;;;;;5104355;28;20203;-77
2023/06/30 07:40:34;;;;;;;2.43;2.30;;;;;;;;;;5099622;28;20272;-77
2023/06/30 07:43:01;;;;;;;2.30;2.10;;;;;;;;;;5095372;28;20229;-76
2023/06/30 07:45:27;;;;;;;2.50;2.30;;;;;;;;;;5100194;28;20195;-76
2023/06/30 07:47:54;;;;;;;2.77;2.10;;;;;;;;;;5097085;28;20200;-77
2023/06/30 07:50:21;;;;;;;2.30;2.10;;;;;;;;;;5102363;28;20208;-77
2023/06/30 07:52:49;;;;;;;3.10;2.37;;;;;;;;;;5093697;28;20200;-76
2023/06/30 07:55:17;;;;;;;2.20;2.10;;;;;;;;;;5111418;28;20199;-77
2023/06/30 07:57:44;;;;;;;2.60;2.40;;;;;;;;;;5096867;28;20196;-76
2023/06/30 08:00:15;;;;;;;2.37;2.17;;;;;;;;;;5101015;28;20203;-77
2023/06/30 08:02:42;;;;;;;2.50;2.30;;;;;;;;;;5094451;28;20705;-77
2023/06/30 08:05:09;;;;;;;2.00;1.90;;;;;;;;;;5099641;28;20200;-77
2023/06/30 08:07:36;;;;;;;2.87;2.20;;;;;;;;;;5103967;28;20200;-76
2023/06/30 08:10:04;;;;;;;2.80;2.00;;;;;;;;;;5090578;28;20204;-76
2023/06/30 08:12:32;;;;;;;2.60;2.13;;;;;;;;;;5108580;28;20278;-76
2023/06/30 08:15:00;;;;;;;2.00;1.90;;;;;;;;;;5099197;28;20565;-76
2023/06/30 08:17:27;;;;;;;2.00;1.90;;;;;;;;;;5104022;28;20208;-76
2023/06/30 08:19:54;;;;;;;2.83;2.53;;;;;;;;;;5090272;28;20209;-76
2023/06/30 08:22:21;;;;;;;2.60;1.93;;;;;;;;;;5109339;28;20240;-76
2023/06/30 08:24:48;;;;;;;6.50;5.37;;;;;;;;;;5110485;28;20223;-76
2023/06/30 08:27:16;;;;;;;2.93;2.57;;;;;;;;;;5110854;28;20230;-76
2023/06/30 08:29:44;;;;;;;2.33;2.20;;;;;;;;;;5097411;28;20671;-76
2023/06/30 08:32:11;;;;;;;3.13;2.20;;;;;;;;;;5096498;28;20200;-76
2023/06/30 08:34:38;;;;;;;4.13;2.43;;;;;;;;;;5097717;28;20204;-76
2023/06/30 08:37:05;;;;;;;2.37;2.17;;;;;;;;;;5089842;28;20706;-76
2023/06/30 08:39:32;;;;;;;3.13;2.20;;;;;;;;;;5104003;28;20638;-76
2023/06/30 08:42:00;;;;;;;2.50;2.30;;;;;;;;;;5090311;28;20281;-76
2023/06/30 08:44:27;;;;;;;2.10;2.00;;;;;;;;;;5103769;28;20223;-76
2023/06/30 08:46:57;;;;;;;4.00;2.47;;;;;;;;;;5090865;28;20746;-76
2023/06/30 08:49:25;;;;;;;2.30;2.10;;;;;;;;;;5109037;28;20206;-76
2023/06/30 08:51:55;;;;;;;1.87;1.77;;;;;;;;;;5106115;28;20196;-76
2023/06/30 08:54:22;;;;;;;3.10;2.80;;;;;;;;;;5107454;28;20264;-76
2023/06/30 08:56:49;;;;;;;2.20;2.00;;;;;;;;;;5093480;28;20705;-76
2023/06/30 08:59:16;;;;;;;2.20;2.10;;;;;;;;;;5109037;28;20678;-76
2023/06/30 09:01:43;;;;;;;2.57;2.10;;;;;;;;;;5105010;28;20200;-76
2023/06/30 09:04:12;;;;;;;2.40;2.23;;;;;;;;;;5096056;28;20615;-76
2023/06/30 09:06:43;;;;;;;2.90;2.40;;;;;;;;;;5103762;28;20634;-76
2023/06/30 09:09:11;;;;;;;2.70;2.50;;;;;;;;;;5107307;28;20215;-76
2023/06/30 09:11:39;;;;;;;4.27;2.67;;;;;;;;;;5105085;28;20196;-76
2023/06/30 09:14:07;;;;;;;2.87;2.40;;;;;;;;;;5095225;28;20196;-76
2023/06/30 09:16:35;;;;;;;2.97;2.63;;;;;;;;;;5105656;28;20196;-76
2023/06/30 09:19:02;;;;;;;2.87;2.47;;;;;;;;;;5099855;28;20203;-76
2023/06/30 09:21:30;;;;;;;2.37;2.27;;;;;;;;;;5113838;28;20210;-76
2023/06/30 09:23:57;;;;;;;2.70;2.50;;;;;;;;;;5094913;28;20235;-77
2023/06/30 09:26:24;;;;;;;2.90;2.70;;;;;;;;;;5106060;28;20199;-76
2023/06/30 09:28:54;;;;;;;3.87;2.80;;;;;;;;;;5107384;28;20208;-76
2023/06/30 09:31:28;;;;;;;2.70;2.50;;;;;;;;;;5105979;28;20208;-76
2023/06/30 09:34:10;;;;;;;2.97;2.67;;;;;;;;;;5113414;28;20203;-76
2023/06/30 09:36:38;;;;;;;3.90;2.80;;;;;;;;;;5097305;28;20663;-77
2023/06/30 09:39:07;;;;;;;2.87;2.63;;;;;;;;;;5102242;28;20635;-76
2023/06/30 09:41:34;;;;;;;3.60;2.60;;;;;;;;;;5099871;28;20227;-77
2023/06/30 09:44:01;;;;;;;2.80;2.60;;;;;;;;;;5103045;28;20311;-77
2023/06/30 09:46:29;;;;;;;3.03;2.72;;;;;;;;;;5109677;28;20717;-77
2023/06/30 09:48:56;;;;;;;3.35;2.67;;;;;;;;;;5102686;28;20204;-77
2023/06/30 09:51:23;;;;;;;2.80;2.38;;;;;;;;;;5106621;28;20196;-76
2023/06/30 09:53:53;;;;;;;3.00;2.72;;;;;;;;;;5103678;28;20204;-76
2023/06/30 09:56:20;;;;;;;4.70;2.78;;;;;;;;;;5094351;28;20233;-77
2023/06/30 09:58:47;;;;;;;3.30;3.00;;;;;;;;;;5103398;28;20196;-77
2023/06/30 10:01:18;;;;;;;5.07;3.35;;;;;;;;;;5108130;28;20200;-77
2023/06/30 10:03:49;;;;;;;4.25;3.38;;;;;;;;;;5092127;28;20645;-77
2023/06/30 10:06:17;;;;;;;3.83;2.63;;;;;;;;;;5098907;28;20658;-77
2023/06/30 10:08:44;;;;;;;2.50;2.40;;;;;;;;;;5098998;28;20204;-77
2023/06/30 10:11:12;;;;;;;2.43;2.33;;;;;;;;;;5092048;28;20699;-77
2023/06/30 10:13:39;;;;;;;2.47;2.30;;;;;;;;;;5105532;28;20697;-77
2023/06/30 10:16:07;;;;;;;2.87;2.50;;;;;;;;;;5112568;28;20686;-77
2023/06/30 10:18:35;;;;;;;2.90;2.40;;;;;;;;;;5112084;28;20203;-77
2023/06/30 10:21:02;;;;;;;1.97;1.87;;;;;;;;;;5112449;28;20199;-77
2023/06/30 10:23:30;;;;;;;2.93;2.10;;;;;;;;;;5098531;28;20227;-78
2023/06/30 10:25:58;;;;;;;7.57;2.63;;;;;;;;;;5103784;28;20694;-77
2023/06/30 10:28:26;;;;;;;2.50;2.30;;;;;;;;;;5105869;28;20210;-77
2023/06/30 10:30:54;;;;;;;2.77;2.40;;;;;;;;;;5100882;28;20199;-77
2023/06/30 10:33:21;;;;;;;2.35;2.22;;;;;;;;;;5098456;28;20493;-77
2023/06/30 10:35:49;;;;;;;4.55;2.30;;;;;;;;;;5112248;28;20309;-77
2023/06/30 10:38:15;;;;;;;2.60;2.40;;;;;;;;;;5108961;28;20213;-77
2023/06/30 10:40:42;;;;;;;2.80;2.60;;;;;;;;;;5091749;28;20228;-77
2023/06/30 10:43:10;;;;;;;1.92;1.83;;;;;;;;;;5094583;28;20195;-77
2023/06/30 10:46:06;;;;;;;2.28;1.95;;;;;;;;;;5101560;28;20640;-77
2023/06/30 10:48:33;;;;;;;3.90;2.97;;;;;;;;;;5099468;28;20755;-77
2023/06/30 10:50:59;;;;;;;2.87;2.33;;;;;;;;;;5111744;28;20203;-77
2023/06/30 10:53:27;;;;;;;5.60;2.60;;;;;;;;;;5103393;28;20265;-77
2023/06/30 10:55:56;;;;;;;2.97;2.20;;;;;;;;;;5091762;28;20230;-77
2023/06/30 10:58:24;;;;;;;2.40;2.20;;;;;;;;;;5091365;28;20246;-77
2023/06/30 11:01:07;;;;;;;2.90;2.70;;;;;;;;;;5093760;28;20330;-78
2023/06/30 11:04:11;;;;;;;2.20;1.92;;;;;;;;;;5111660;28;20700;-78
2023/06/30 11:06:38;;;;;;;2.20;1.80;;;;;;;;;;5102232;28;20195;-78
2023/06/30 11:09:10;;;;;;;1.88;1.70;;;;;;;;;;5111176;28;20245;-77
2023/06/30 11:11:48;;;;;;;2.03;1.83;;;;;;;;;;5111001;28;20253;-78
2023/06/30 11:14:15;;;;;;;2.58;2.38;;;;;;;;;;5091030;28;20624;-77
2023/06/30 11:17:05;;;;;;;2.97;2.03;;;;;;;;;;5104560;28;20203;-78
2023/06/30 11:19:32;;;;;;;2.63;2.42;;;;;;;;;;5091181;28;20211;-78
2023/06/30 11:22:25;;;;;;;1.92;1.83;;;;;;;;;;5104562;28;20642;-78
2023/06/30 11:24:53;;;;;;;2.00;1.90;;;;;;;;;;5091215;28;20224;-77
2023/06/30 11:27:20;;;;;;;1.90;1.70;;;;;;;;;;5097150;28;20298;-78
2023/06/30 11:29:49;;;;;;;2.10;1.90;;;;;;;;;;5097752;28;20242;-78
2023/06/30 11:32:18;;;;;;;2.70;2.00;;;;;;;;;;5104142;28;20200;-78
2023/06/30 11:34:45;;;;;;;2.20;2.00;;;;;;;;;;5090954;28;20628;-78
2023/06/30 11:37:12;;;;;;;3.13;2.47;;;;;;;;;;5111463;28;20211;-78
2023/06/30 11:39:40;;;;;;;3.95;2.10;;;;;;;;;;5110556;28;20219;-78
2023/06/30 11:42:07;;;;;;;2.28;1.83;;;;;;;;;;5098279;28;20206;-78
2023/06/30 11:44:37;;;;;;;1.90;1.80;;;;;;;;;;5097400;28;20220;-79
2023/06/30 11:47:04;;;;;;;1.95;1.85;;;;;;;;;;5102322;28;20267;-79
2023/06/30 11:49:37;;;;;;;2.00;1.90;;;;;;;;;;5103864;28;20207;-78
2023/06/30 11:52:06;;;;;;;1.80;1.70;;;;;;;;;;5100667;28;20203;-79
2023/06/30 11:54:34;;;;;;;2.05;1.95;;;;;;;;;;5111344;28;20203;-78
2023/06/30 11:57:01;;;;;;;2.05;1.88;;;;;;;;;;5110650;28;20221;-78
2023/06/30 11:59:28;;;;;;;1.88;1.77;;;;;;;;;;5110504;28;20192;-78
2023/06/30 12:01:55;;;;;;;2.72;2.03;;;;;;;;;;5100537;28;20586;-78
2023/06/30 12:04:36;;;;;;;2.45;1.95;;;;;;;;;;5094177;28;20215;-79
2023/06/30 12:07:05;;;;;;;2.10;2.00;;;;;;;;;;5098099;28;20208;-78
2023/06/30 12:09:32;;;;;;;1.92;1.80;;;;;;;;;;5103634;28;20647;-78
2023/06/30 12:12:00;;;;;;;2.00;1.90;;;;;;;;;;5090358;28;20215;-78
2023/06/30 12:14:28;;;;;;;2.25;1.90;;;;;;;;;;5097370;28;20202;-78
2023/06/30 12:16:55;;;;;;;2.35;2.17;;;;;;;;;;5096922;28;20714;-78
2023/06/30 12:19:25;;;;;;;2.83;2.58;;;;;;;;;;5103196;28;20197;-78
2023/06/30 12:21:55;;;;;;;2.05;1.92;;;;;;;;;;5104869;28;20228;-78
2023/06/30 12:24:22;;;;;;;2.65;2.08;;;;;;;;;;5094276;28;20216;-78
2023/06/30 12:26:53;;;;;;;3.33;2.10;;;;;;;;;;5107899;28;20217;-78
2023/06/30 12:29:20;;;;;;;2.60;2.13;;;;;;;;;;5103762;28;20195;-78
2023/06/30 12:31:47;;;;;;;2.33;2.13;;;;;;;;;;5100626;28;20208;-78
2023/06/30 12:34:14;;;;;;;2.80;2.05;;;;;;;;;;5104374;28;20233;-78
2023/06/30 12:36:41;;;;;;;1.98;1.88;;;;;;;;;;5107686;28;20265;-79
2023/06/30 12:39:09;;;;;;;2.28;1.90;;;;;;;;;;5094395;28;20205;-79
2023/06/30 12:41:36;;;;;;;2.15;2.05;;;;;;;;;;5111410;28;20224;-79
2023/06/30 12:44:04;;;;;;;2.40;2.20;;;;;;;;;;5103955;28;20214;-78
2023/06/30 12:46:32;;;;;;;1.80;1.70;;;;;;;;;;5112038;28;20202;-78
2023/06/30 12:48:59;;;;;;;2.65;2.03;;;;;;;;;;5113956;28;20199;-78
2023/06/30 12:51:26;;;;;;;2.00;1.90;;;;;;;;;;5114204;28;20207;-78
2023/06/30 12:53:53;;;;;;;2.30;2.10;;;;;;;;;;5113967;28;20208;-78
2023/06/30 12:56:21;;;;;;;2.50;2.20;;;;;;;;;;5109155;28;20196;-78
2023/06/30 12:58:48;;;;;;;2.05;1.95;;;;;;;;;;5105404;28;20196;-78
2023/06/30 13:01:14;;;;;;;2.10;2.00;;;;;;;;;;5100899;28;20200;-78
2023/06/30 13:03:41;;;;;;;2.40;2.20;;;;;;;;;;5113974;28;20570;-78
2023/06/30 13:06:08;;;;;;;2.17;1.92;;;;;;;;;;5099642;28;20257;-78
2023/06/30 13:08:35;;;;;;;2.17;2.08;;;;;;;;;;5114273;28;20203;-78
2023/06/30 13:11:02;;;;;;;1.90;1.80;;;;;;;;;;5108226;28;20669;-78
2023/06/30 13:13:30;;;;;;;2.58;2.35;;;;;;;;;;5105555;28;20594;-78
2023/06/30 13:16:00;;;;;;;1.90;1.80;;;;;;;;;;5113789;28;20203;-78
2023/06/30 13:18:27;;;;;;;2.30;2.10;;;;;;;;;;5113545;28;20597;-78
2023/06/30 13:20:54;;;;;;;3.67;2.20;;;;;;;;;;5113353;28;20614;-78
2023/06/30 13:23:20;;;;;;;2.50;2.40;;;;;;;;;;5099800;28;20207;-78
2023/06/30 13:25:48;;;;;;;3.03;1.95;;;;;;;;;;5100206;28;20230;-78
2023/06/30 13:28:15;;;;;;;3.10;2.10;;;;;;;;;;5099385;28;20196;-78
2023/06/30 13:30:43;;;;;;;5.82;2.45;;;;;;;;;;5113493;28;20212;-78
2023/06/30 13:33:10;;;;;;;2.80;2.38;;;;;;;;;;5098646;28;20693;-78
2023/06/30 13:35:36;;;;;;;3.22;2.15;;;;;;;;;;5100769;28;20666;-78
2023/06/30 13:38:03;;;;;;;6.80;2.40;;;;;;;;;;5111935;28;20673;-78
2023/06/30 13:40:30;;;;;;;3.75;2.20;;;;;;;;;;5101140;28;20230;-78
2023/06/30 13:42:57;;;;;;;1.85;1.75;;;;;;;;;;5099171;28;20208;-78
2023/06/30 13:45:23;;;;;;;2.30;2.10;;;;;;;;;;5104321;28;20220;-78
2023/06/30 13:47:53;;;;;;;2.67;2.47;;;;;;;;;;5106060;28;20199;-78
2023/06/30 13:50:19;;;;;;;2.58;2.25;;;;;;;;;;5101951;28;20199;-78
2023/06/30 13:52:46;;;;;;;2.00;1.90;;;;;;;;;;5110682;28;20203;-78
2023/06/30 13:55:13;;;;;;;2.55;2.45;;;;;;;;;;5093123;28;20627;-78
2023/06/30 13:57:39;;;;;;;2.10;2.00;;;;;;;;;;5106111;28;20199;-79
2023/06/30 14:00:07;;;;;;;2.63;2.10;;;;;;;;;;5102001;28;20720;-78
2023/06/30 14:02:34;;;;;;;1.88;1.77;;;;;;;;;;5099026;28;20211;-78
2023/06/30 14:05:02;;;;;;;2.25;2.05;;;;;;;;;;5102832;28;20724;-78
2023/06/30 14:07:30;;;;;;;2.45;1.98;;;;;;;;;;5108729;28;20566;-78
2023/06/30 14:09:58;;;;;;;2.30;2.05;;;;;;;;;;5101970;28;20207;-78
2023/06/30 14:12:24;;;;;;;3.17;2.20;;;;;;;;;;5105550;28;20228;-78
2023/06/30 14:14:51;;;;;;;2.45;2.28;;;;;;;;;;5103057;28;20705;-78
2023/06/30 14:17:18;;;;;;;2.40;2.10;;;;;;;;;;5098304;28;20203;-78
2023/06/30 14:19:45;;;;;;;8.52;2.35;;;;;;;;;;5101222;28;20204;-78
2023/06/30 14:22:13;;;;;;;2.35;1.95;;;;;;;;;;5096227;28;20202;-78
2023/06/30 14:24:40;;;;;;;2.15;1.90;;;;;;;;;;5101075;28;20228;-78
2023/06/30 14:27:07;;;;;;;2.78;2.10;;;;;;;;;;5096892;28;20199;-78
2023/06/30 14:29:36;;;;;;;2.30;2.10;;;;;;;;;;5112015;28;20210;-77
2023/06/30 14:32:03;;;;;;;4.13;2.15;;;;;;;;;;5112227;28;20195;-78
2023/06/30 14:34:30;;;;;;;5.05;2.85;;;;;;;;;;5112446;28;20209;-77
2023/06/30 14:36:57;;;;;;;3.25;2.10;;;;;;;;;;5098520;28;20207;-77
2023/06/30 14:39:25;;;;;;;2.50;2.30;;;;;;;;;;5099692;28;20819;-78
2023/06/30 14:41:52;;;;;;;2.03;1.92;;;;;;;;;;5111266;28;20226;-77
2023/06/30 14:44:20;;;;;;;1.98;1.88;;;;;;;;;;5111273;28;20693;-77
2023/06/30 14:46:47;;;;;;;1.95;1.85;;;;;;;;;;5111758;28;20220;-77